Terminal Aerodrome Forecast
Issued by NWS

Current Version | Previous Version | Text Only | Print | Product List | Glossary Off
Versions: 1 2 3 4 5 6 7 8 9 10 11 12 13 14 15 16 17 18 19 20 21 22 23 24 25

000
FTUS41 KRLX 282300
TAFCKB
TAF
KCKB 282325Z 2900/2924 00000KT P6SM BKN150
     FM290700 00000KT 5SM BR BKN200
     FM290800 00000KT 1 1/2SM BR SCT150
     FM291100 00000KT 3SM BR BKN200
     FM291200 28004KT P6SM SCT045=

USA.gov is the U.S. government's official web portal to all federal, state and local government web resources and services.